createdAt,value
2023-01-04T00:00:10.190Z,101685.79
2023-01-04T00:02:58.858Z,101684.45
2023-01-04T00:05:27.494Z,101688.38
2023-01-04T00:07:55.234Z,101688.34
2023-01-04T00:10:23.158Z,101693.20
2023-01-04T00:12:50.942Z,101688.38
2023-01-04T00:15:19.168Z,101684.19
2023-01-04T00:17:47.408Z,101684.22
2023-01-04T00:20:17.217Z,101679.69
2023-01-04T00:22:44.950Z,101676.80
2023-01-04T00:25:12.737Z,101671.86
2023-01-04T00:27:40.451Z,101676.21
2023-01-04T00:30:09.701Z,101673.17
2023-01-04T00:32:37.828Z,101679.05
2023-01-04T00:35:06.233Z,101679.86
2023-01-04T00:37:34.069Z,101682.11
2023-01-04T00:40:02.254Z,101687.04
2023-01-04T00:42:31.779Z,101692.48
2023-01-04T00:44:59.724Z,101688.11
2023-01-04T00:47:34.144Z,101692.13
2023-01-04T00:50:05.093Z,101698.85
2023-01-04T00:52:35.251Z,101700.13
2023-01-04T00:55:03.232Z,101701.19
2023-01-04T00:57:34.255Z,101708.10
2023-01-04T01:00:05.290Z,101712.65
2023-01-04T01:02:33.512Z,101715.92
2023-01-04T01:05:02.237Z,101720.88
2023-01-04T01:07:33.601Z,101722.86
2023-01-04T01:10:02.403Z,101726.91
2023-01-04T01:12:30.312Z,101729.83
2023-01-04T01:15:00.691Z,101728.41
2023-01-04T01:17:32.888Z,101725.96
2023-01-04T01:20:00.759Z,101724.52
2023-01-04T01:22:30.120Z,101716.26
2023-01-04T01:25:00.511Z,101718.52
2023-01-04T01:27:29.872Z,101722.70
2023-01-04T01:29:58.816Z,101726.73
2023-01-04T01:32:30.851Z,101727.17
2023-01-04T01:35:00.962Z,101732.05
2023-01-04T01:37:30.849Z,101727.08
2023-01-04T01:39:59.980Z,101721.69
2023-01-04T01:42:27.851Z,101712.86
2023-01-04T01:45:10.296Z,101714.33
2023-01-04T01:47:39.875Z,101711.85
2023-01-04T01:50:17.346Z,101706.27
2023-01-04T01:52:45.371Z,101702.23
2023-01-04T01:55:14.316Z,101694.85
2023-01-04T01:57:42.273Z,101695.58
2023-01-04T02:00:12.659Z,101695.94
2023-01-04T02:02:48.848Z,101699.23
2023-01-04T02:05:17.585Z,101698.10
2023-01-04T02:07:45.485Z,101696.52
2023-01-04T02:10:13.351Z,101695.09
2023-01-04T02:12:41.850Z,101700.48
2023-01-04T02:15:10.631Z,101694.23
2023-01-04T02:17:44.553Z,101694.94
2023-01-04T02:20:27.340Z,101693.56
2023-01-04T02:23:09.148Z,101693.73
2023-01-04T02:25:51.137Z,101686.52
2023-01-04T02:28:26.727Z,101686.26
2023-01-04T02:31:14.176Z,101685.48
2023-01-04T02:33:50.121Z,101683.52
2023-01-04T02:36:26.711Z,101680.77
2023-01-04T02:39:03.791Z,101677.38
2023-01-04T02:41:37.871Z,101676.67
2023-01-04T02:44:26.588Z,101678.83
2023-01-04T02:46:57.552Z,101672.92
2023-01-04T02:49:45.426Z,101661.34
2023-01-04T02:52:13.524Z,101661.75
2023-01-04T02:54:42.007Z,101662.45
2023-01-04T02:57:27.198Z,101668.92
2023-01-04T03:00:10.236Z,101673.14
2023-01-04T03:03:10.553Z,101669.38
2023-01-04T03:06:01.447Z,101665.23
2023-01-04T03:08:31.991Z,101668.06
2023-01-04T03:11:04.744Z,101665.97
2023-01-04T03:13:35.897Z,101662.23
2023-01-04T03:16:09.370Z,101652.55
2023-01-04T03:18:40.883Z,101653.39
2023-01-04T03:21:11.265Z,101651.15
2023-01-04T03:23:59.446Z,101648.16
2023-01-04T03:26:47.853Z,101636.04
2023-01-04T03:29:38.589Z,101624.81
2023-01-04T03:32:32.278Z,101623.57
2023-01-04T03:35:19.081Z,101628.52
2023-01-04T03:37:50.209Z,101630.23
2023-01-04T03:40:39.254Z,101635.23
2023-01-04T03:43:27.066Z,101632.15
2023-01-04T03:46:15.685Z,101630.41
2023-01-04T03:48:46.135Z,101631.43
2023-01-04T03:51:15.718Z,101621.69
2023-01-04T03:53:47.956Z,101614.73
2023-01-04T03:56:17.501Z,101613.13
2023-01-04T03:58:45.632Z,101611.31
2023-01-04T04:01:13.718Z,101610.02
2023-01-04T04:04:03.570Z,101614.65
2023-01-04T04:06:49.729Z,101612.61
2023-01-04T04:09:17.647Z,101610.85
2023-01-04T04:11:45.364Z,101609.64
2023-01-04T04:14:14.177Z,101610.65
2023-01-04T04:16:42.034Z,101608.34
2023-01-04T04:19:13.616Z,101602.32
2023-01-04T04:21:41.378Z,101605.90
2023-01-04T04:24:16.129Z,101602.74
2023-01-04T04:26:45.572Z,101608.73
2023-01-04T04:29:14.129Z,101604.10
2023-01-04T04:31:41.832Z,101602.48
2023-01-04T04:34:12.126Z,101601.89
2023-01-04T04:36:42.035Z,101599.09
2023-01-04T04:39:12.173Z,101603.09
2023-01-04T04:41:43.185Z,101596.38
2023-01-04T04:44:13.148Z,101590.73
2023-01-04T04:46:42.895Z,101595.93
2023-01-04T04:49:18.441Z,101598.55
2023-01-04T04:51:46.579Z,101599.53
2023-01-04T04:54:16.732Z,101596.70
2023-01-04T04:56:46.338Z,101594.14
2023-01-04T04:59:17.875Z,101593.79
2023-01-04T05:01:47.620Z,101593.86
2023-01-04T05:04:18.973Z,101595.83
2023-01-04T05:06:47.537Z,101599.33
2023-01-04T05:09:18.639Z,101597.02
2023-01-04T05:12:06.371Z,101598.98
2023-01-04T05:14:34.238Z,101603.37
2023-01-04T05:17:01.889Z,101595.90
2023-01-04T05:19:29.685Z,101597.65
2023-01-04T05:21:57.531Z,101596.99
2023-01-04T05:24:27.356Z,101590.86
2023-01-04T05:26:55.071Z,101586.00
2023-01-04T05:29:42.381Z,101577.23
2023-01-04T05:32:10.239Z,101574.25
2023-01-04T05:34:40.534Z,101570.89
2023-01-04T05:37:09.724Z,101570.41
2023-01-04T05:39:37.433Z,101567.50
2023-01-04T05:42:23.802Z,101564.66
2023-01-04T05:44:52.019Z,101556.23
2023-01-04T05:47:20.897Z,101555.48
2023-01-04T05:49:53.358Z,101554.70
2023-01-04T05:52:21.683Z,101555.05
2023-01-04T05:54:51.118Z,101556.21
2023-01-04T05:57:25.245Z,101555.27
2023-01-04T05:59:54.762Z,101550.25
2023-01-04T06:02:24.340Z,101543.20
2023-01-04T06:04:58.403Z,101541.71
2023-01-04T06:07:29.972Z,101540.79
2023-01-04T06:09:59.835Z,101546.27
2023-01-04T06:12:28.624Z,101542.64
2023-01-04T06:14:56.696Z,101542.52
2023-01-04T06:17:28.128Z,101536.14
2023-01-04T06:19:56.276Z,101528.23
2023-01-04T06:22:27.836Z,101524.68
2023-01-04T06:24:55.826Z,101517.27
2023-01-04T06:27:24.175Z,101511.52
2023-01-04T06:29:52.504Z,101506.04
2023-01-04T06:32:24.817Z,101504.20
2023-01-04T06:34:55.373Z,101497.50
2023-01-04T06:37:25.253Z,101494.94
2023-01-04T06:39:53.225Z,101496.35
2023-01-04T06:42:42.253Z,101492.63
2023-01-04T06:45:10.875Z,101489.73
2023-01-04T06:47:41.730Z,101486.77
2023-01-04T06:50:10.177Z,101488.53
2023-01-04T06:52:38.158Z,101492.55
2023-01-04T06:55:09.041Z,101489.98
2023-01-04T06:57:36.791Z,101490.60
2023-01-04T07:00:10.826Z,101493.60
2023-01-04T07:03:12.361Z,101495.22
2023-01-04T07:05:30.292Z,101489.71
2023-01-04T07:08:07.358Z,101495.77
2023-01-04T07:10:36.600Z,101508.91
2023-01-04T07:13:21.257Z,101511.67
2023-01-04T07:15:51.540Z,101518.42
2023-01-04T07:18:19.371Z,101518.36
2023-01-04T07:20:49.261Z,101517.76
2023-01-04T07:23:17.298Z,101516.46
2023-01-04T07:25:46.369Z,101513.48
2023-01-04T07:28:35.845Z,101513.10
2023-01-04T07:31:08.093Z,101507.08
2023-01-04T07:33:37.850Z,101496.52
2023-01-04T07:36:09.135Z,101493.73
2023-01-04T07:38:44.625Z,101492.27
2023-01-04T07:41:12.342Z,101494.53
2023-01-04T07:43:41.140Z,101490.83
2023-01-04T07:46:12.023Z,101485.21
2023-01-04T07:48:39.940Z,101484.77
2023-01-04T07:51:09.965Z,101481.84
2023-01-04T07:53:38.107Z,101476.58
2023-01-04T07:56:06.810Z,101478.66
2023-01-04T07:58:34.945Z,101471.52
2023-01-04T08:01:09.683Z,101468.21
2023-01-04T08:03:37.882Z,101465.30
2023-01-04T08:06:06.898Z,101461.14
2023-01-04T08:08:38.134Z,101453.34
2023-01-04T08:11:06.971Z,101456.02
2023-01-04T08:13:36.887Z,101456.56
2023-01-04T08:16:11.612Z,101450.98
2023-01-04T08:18:39.436Z,101439.20
2023-01-04T08:21:08.434Z,101434.48
2023-01-04T08:23:36.936Z,101435.09
2023-01-04T08:26:05.978Z,101429.75
2023-01-04T08:28:34.462Z,101439.20
2023-01-04T08:31:05.765Z,101438.33
2023-01-04T08:33:35.912Z,101426.78
2023-01-04T08:36:11.050Z,101419.63
2023-01-04T08:41:56.575Z,101401.46
2023-01-04T08:44:23.120Z,101403.68
2023-01-04T08:46:53.455Z,101415.70
2023-01-04T08:49:24.724Z,101412.48
2023-01-04T08:51:55.084Z,101406.52
2023-01-04T08:54:22.838Z,101403.45
2023-01-04T08:56:53.698Z,101401.00
2023-01-04T08:59:21.538Z,101399.98
2023-01-04T09:01:49.405Z,101398.69
2023-01-04T09:04:17.631Z,101399.29
2023-01-04T09:06:47.210Z,101396.21
2023-01-04T09:09:17.064Z,101386.45
2023-01-04T09:11:45.098Z,101382.97
2023-01-04T09:14:13.613Z,101377.33
2023-01-04T09:16:41.558Z,101367.29
2023-01-04T09:19:21.706Z,101361.11
2023-01-04T09:21:52.548Z,101354.99
2023-01-04T09:24:20.452Z,101345.56
2023-01-04T09:26:48.499Z,101339.02
2023-01-04T09:29:18.330Z,101336.54
2023-01-04T09:31:46.836Z,101337.63
2023-01-04T09:34:17.080Z,101326.64
2023-01-04T09:36:46.684Z,101314.95
2023-01-04T09:39:22.245Z,101314.53
2023-01-04T09:41:55.760Z,101314.42
2023-01-04T09:47:35.496Z,101300.19
2023-01-04T09:50:06.010Z,101287.20
2023-01-04T09:52:44.281Z,101279.88
2023-01-04T09:55:37.961Z,101281.76
2023-01-04T09:58:08.415Z,101274.48
2023-01-04T10:00:43.757Z,101265.19
2023-01-04T10:03:15.015Z,101262.61
2023-01-04T10:05:46.741Z,101260.86
2023-01-04T10:08:17.220Z,101257.80
2023-01-04T10:10:49.035Z,101253.48
2023-01-04T10:13:25.650Z,101246.41
2023-01-04T10:16:02.623Z,101232.76
2023-01-04T10:21:37.340Z,101224.28
2023-01-04T10:24:12.977Z,101210.83
2023-01-04T10:26:45.817Z,101213.39
2023-01-04T10:29:27.811Z,101211.72
2023-01-04T10:31:58.248Z,101207.25
2023-01-04T10:34:28.517Z,101195.58
2023-01-04T10:36:58.450Z,101181.14
2023-01-04T10:39:33.145Z,101161.95
2023-01-04T10:42:07.111Z,101143.79
2023-01-04T10:44:38.894Z,101129.94
2023-01-04T10:47:10.399Z,101122.80
2023-01-04T10:49:42.102Z,101107.95
2023-01-04T10:52:12.559Z,101103.48
2023-01-04T10:54:44.606Z,101096.83
2023-01-04T10:57:22.705Z,101089.09
2023-01-04T10:59:57.621Z,101074.73
2023-01-04T11:02:29.140Z,101066.95
2023-01-04T11:05:04.776Z,101059.00
2023-01-04T11:07:36.849Z,101055.34
2023-01-04T11:10:09.169Z,101052.17
2023-01-04T11:12:38.269Z,101047.77
2023-01-04T11:15:07.485Z,101050.58
2023-01-04T11:17:35.832Z,101047.44
2023-01-04T11:20:06.916Z,101048.16
2023-01-04T11:22:37.616Z,101035.66
2023-01-04T11:25:38.294Z,101028.41
2023-01-04T11:28:01.666Z,101018.80
2023-01-04T11:30:35.113Z,101007.25
2023-01-04T11:33:11.084Z,101004.05
2023-01-04T11:35:42.811Z,100997.81
2023-01-04T11:38:19.588Z,100986.50
2023-01-04T11:41:01.241Z,100979.77
2023-01-04T11:43:31.477Z,100969.77
2023-01-04T11:46:01.159Z,100954.85
2023-01-04T11:48:40.303Z,100946.15
2023-01-04T11:51:18.173Z,100941.48
2023-01-04T11:53:53.845Z,100938.36
2023-01-04T11:56:24.234Z,100930.44
2023-01-04T11:59:06.064Z,100916.73
2023-01-04T12:01:37.122Z,100901.90
2023-01-04T12:04:09.848Z,100891.64
2023-01-04T12:06:40.140Z,100884.58
2023-01-04T12:09:12.783Z,100879.17
2023-01-04T12:11:44.011Z,100873.92
2023-01-04T12:14:21.858Z,100869.13
2023-01-04T12:16:52.467Z,100862.91
2023-01-04T12:19:21.798Z,100863.73
2023-01-04T12:21:51.458Z,100861.00
2023-01-04T12:24:21.622Z,100861.07
2023-01-04T12:26:54.249Z,100854.88
2023-01-04T12:29:41.832Z,100845.42
2023-01-04T12:32:27.680Z,100836.20
2023-01-04T12:34:58.138Z,100821.34
2023-01-04T12:37:48.019Z,100812.26
2023-01-04T12:40:34.009Z,100800.38
2023-01-04T12:43:16.181Z,100797.23
2023-01-04T12:45:45.405Z,100798.98
2023-01-04T12:48:45.912Z,100794.91
2023-01-04T12:51:37.383Z,100792.02
2023-01-04T12:54:24.442Z,100783.13
2023-01-04T12:57:22.571Z,100776.33
2023-01-04T13:00:00.148Z,100767.37
2023-01-04T13:02:29.793Z,100762.82
2023-01-04T13:05:54.039Z,100750.04
2023-01-04T13:07:52.596Z,100741.11
2023-01-04T13:10:33.704Z,100727.20
2023-01-04T13:13:16.803Z,100721.26
2023-01-04T13:15:53.029Z,100714.52
2023-01-04T13:18:44.125Z,100707.13
2023-01-04T13:21:16.137Z,100706.65
2023-01-04T13:23:48.523Z,100698.28
2023-01-04T13:26:37.988Z,100689.88
2023-01-04T13:29:12.324Z,100684.83
2023-01-04T13:32:00.309Z,100676.36
2023-01-04T13:34:35.709Z,100670.94
2023-01-04T13:37:09.345Z,100664.67
2023-01-04T13:39:38.959Z,100655.48
2023-01-04T13:42:14.493Z,100655.35
2023-01-04T13:45:20.537Z,100645.78
2023-01-04T13:47:51.480Z,100630.71
2023-01-04T13:50:28.621Z,100622.56
2023-01-04T13:53:07.400Z,100614.23
2023-01-04T13:55:37.402Z,100607.11
2023-01-04T13:58:06.286Z,100608.16
2023-01-04T14:00:42.504Z,100606.80
2023-01-04T14:03:22.117Z,100605.34
2023-01-04T14:05:51.910Z,100600.54
2023-01-04T14:08:30.232Z,100590.79
2023-01-04T14:10:59.070Z,100583.39
2023-01-04T14:13:30.847Z,100579.05
2023-01-04T14:16:05.143Z,100576.35
2023-01-04T14:18:36.521Z,100570.31
2023-01-04T14:21:04.670Z,100563.16
2023-01-04T14:23:38.248Z,100554.27
2023-01-04T14:26:06.367Z,100549.59
2023-01-04T14:28:50.195Z,100538.88
2023-01-04T14:31:37.920Z,100522.81
2023-01-04T14:34:16.344Z,100520.85
2023-01-04T14:36:45.866Z,100511.10
2023-01-04T14:39:23.276Z,100504.04
2023-01-04T14:42:01.131Z,100502.92
2023-01-04T14:44:50.662Z,100501.86
2023-01-04T14:47:42.827Z,100494.48
2023-01-04T14:50:36.968Z,100471.64
2023-01-04T14:53:09.559Z,100448.70
2023-01-04T14:55:45.660Z,100436.39
2023-01-04T14:58:16.976Z,100443.36
2023-01-04T15:00:44.912Z,100430.92
2023-01-04T15:03:18.235Z,100413.38
2023-01-04T15:05:46.759Z,100403.35
2023-01-04T15:08:14.603Z,100395.82
2023-01-04T15:10:43.224Z,100392.27
2023-01-04T15:13:13.044Z,100387.57
2023-01-04T15:15:41.268Z,100382.64
2023-01-04T15:18:09.564Z,100376.81
2023-01-04T15:20:40.594Z,100373.10
2023-01-04T15:23:12.057Z,100360.13
2023-01-04T15:25:40.805Z,100350.77
2023-01-04T15:28:14.379Z,100342.90
2023-01-04T15:30:43.114Z,100342.80
2023-01-04T15:33:11.030Z,100339.45
2023-01-04T15:35:38.897Z,100341.38
2023-01-04T15:38:16.042Z,100340.55
2023-01-04T15:40:47.063Z,100335.08
2023-01-04T15:43:15.321Z,100327.27
2023-01-04T15:45:43.186Z,100319.86
2023-01-04T15:48:13.476Z,100313.52
2023-01-04T15:50:41.393Z,100307.79
2023-01-04T15:53:10.037Z,100302.31
2023-01-04T15:55:40.674Z,100301.95
2023-01-04T15:58:09.576Z,100295.53
2023-01-04T16:00:38.161Z,100291.78
2023-01-04T16:03:07.282Z,100283.08
2023-01-04T16:05:36.517Z,100273.98
2023-01-04T16:08:05.005Z,100265.83
2023-01-04T16:10:42.641Z,100258.88
2023-01-04T16:13:10.729Z,100256.85
2023-01-04T16:15:41.441Z,100248.16
2023-01-04T16:18:11.847Z,100242.02
2023-01-04T16:20:43.730Z,100237.92
2023-01-04T16:23:13.151Z,100232.79
2023-01-04T16:25:41.223Z,100231.17
2023-01-04T16:28:09.559Z,100223.35
2023-01-04T16:30:38.055Z,100217.02
2023-01-04T16:33:08.893Z,100209.69
2023-01-04T16:35:37.263Z,100205.19
2023-01-04T16:38:05.138Z,100197.01
2023-01-04T16:40:35.772Z,100193.09
2023-01-04T16:43:04.088Z,100190.03
2023-01-04T16:45:34.267Z,100184.00
2023-01-04T16:48:05.268Z,100178.02
2023-01-04T16:50:39.020Z,100170.62
2023-01-04T16:53:07.159Z,100160.59
2023-01-04T16:55:34.996Z,100154.17
2023-01-04T16:58:02.918Z,100144.77
2023-01-04T17:00:34.437Z,100135.49
2023-01-04T17:03:04.968Z,100136.48
2023-01-04T17:05:41.663Z,100138.69
2023-01-04T17:08:26.758Z,100141.38
2023-01-04T17:11:10.722Z,100139.38
2023-01-04T17:13:47.476Z,100123.92
2023-01-04T17:16:16.152Z,100125.02
2023-01-04T17:18:47.714Z,100119.11
2023-01-04T17:21:33.280Z,100110.21
2023-01-04T17:24:09.563Z,100102.88
2023-01-04T17:26:40.283Z,100104.91
2023-01-04T17:29:09.807Z,100090.24
2023-01-04T17:31:40.265Z,100084.18
2023-01-04T17:34:10.144Z,100069.91
2023-01-04T17:36:38.532Z,100069.56
2023-01-04T17:39:08.035Z,100061.14
2023-01-04T17:41:38.975Z,100059.63
2023-01-04T17:44:07.148Z,100049.40
2023-01-04T17:46:39.536Z,100047.61
2023-01-04T17:49:31.365Z,100040.19
2023-01-04T17:51:58.320Z,100034.07
2023-01-04T17:54:31.907Z,100025.77
2023-01-04T17:57:03.020Z,100017.85
2023-01-04T17:59:31.093Z,100006.42
2023-01-04T18:02:01.320Z,100004.88
2023-01-04T18:04:29.399Z,99998.07
2023-01-04T18:06:57.294Z,99990.19
2023-01-04T18:09:26.645Z,99983.54
2023-01-04T18:11:58.340Z,99974.73
2023-01-04T18:14:31.178Z,99975.19
2023-01-04T18:16:59.511Z,99968.00
2023-01-04T18:19:28.617Z,99961.77
2023-01-04T18:21:56.642Z,99954.04
2023-01-04T18:24:42.578Z,99950.54
2023-01-04T18:27:23.193Z,99946.38
2023-01-04T18:29:52.771Z,99942.80
2023-01-04T18:32:26.726Z,99941.85
2023-01-04T18:34:54.769Z,99937.41
2023-01-04T18:37:23.593Z,99931.23
2023-01-04T18:39:51.437Z,99926.60
2023-01-04T18:42:22.459Z,99912.09
2023-01-04T18:44:51.743Z,99902.78
2023-01-04T18:47:26.179Z,99897.65
2023-01-04T18:49:58.766Z,99895.38
2023-01-04T18:52:29.398Z,99886.94
2023-01-04T18:55:00.319Z,99887.33
2023-01-04T18:57:30.632Z,99883.38
2023-01-04T18:59:59.461Z,99880.27
2023-01-04T19:02:39.512Z,99870.39
2023-01-04T19:05:15.474Z,99865.98
2023-01-04T19:07:43.407Z,99860.49
2023-01-04T19:10:11.231Z,99852.77
2023-01-04T19:12:41.143Z,99845.30
2023-01-04T19:15:12.773Z,99839.48
2023-01-04T19:17:41.047Z,99841.20
2023-01-04T19:20:11.818Z,99832.87
2023-01-04T19:22:40.375Z,99847.19
2023-01-04T19:25:08.524Z,99837.45
2023-01-04T19:27:36.639Z,99824.74
2023-01-04T19:30:11.731Z,99815.75
2023-01-04T19:32:47.969Z,99812.62
2023-01-04T19:35:16.531Z,99810.15
2023-01-04T19:37:44.509Z,99803.95
2023-01-04T19:40:12.522Z,99804.08
2023-01-04T19:42:44.051Z,99802.91
2023-01-04T19:45:12.144Z,99797.55
2023-01-04T19:47:44.778Z,99791.59
2023-01-04T19:50:12.554Z,99793.60
2023-01-04T19:52:46.417Z,99791.06
2023-01-04T19:55:14.848Z,99791.73
2023-01-04T19:57:50.382Z,99785.08
2023-01-04T20:00:21.189Z,99786.05
2023-01-04T20:02:50.131Z,99781.19
2023-01-04T20:05:18.278Z,99775.13
2023-01-04T20:07:48.447Z,99766.91
2023-01-04T20:10:18.779Z,99765.01
2023-01-04T20:12:48.329Z,99762.50
2023-01-04T20:15:16.491Z,99757.70
2023-01-04T20:17:44.523Z,99754.94
2023-01-04T20:20:12.552Z,99756.52
2023-01-04T20:22:40.557Z,99757.36
2023-01-04T20:25:09.528Z,99750.33
2023-01-04T20:27:37.999Z,99749.80
2023-01-04T20:30:10.675Z,99752.45
2023-01-04T20:32:41.042Z,99747.45
2023-01-04T20:35:16.900Z,99740.63
2023-01-04T20:37:48.240Z,99741.55
2023-01-04T20:40:16.182Z,99732.94
2023-01-04T20:43:07.441Z,99726.91
2023-01-04T20:45:42.221Z,99722.48
2023-01-04T20:48:10.329Z,99726.20
2023-01-04T20:50:42.201Z,99728.02
2023-01-04T20:53:10.974Z,99724.35
2023-01-04T20:55:40.078Z,99713.74
2023-01-04T20:58:09.471Z,99707.82
2023-01-04T21:00:40.126Z,99712.61
2023-01-04T21:03:14.277Z,99709.75
2023-01-04T21:05:43.529Z,99705.84
2023-01-04T21:08:19.085Z,99705.19
2023-01-04T21:10:51.665Z,99703.23
2023-01-04T21:13:21.242Z,99696.88
2023-01-04T21:15:49.775Z,99696.27
2023-01-04T21:18:19.458Z,99688.77
2023-01-04T21:20:51.810Z,99671.30
2023-01-04T21:23:22.115Z,99675.12
2023-01-04T21:25:52.773Z,99677.23
2023-01-04T21:28:21.534Z,99665.81
2023-01-04T21:30:50.939Z,99664.09
2023-01-04T21:33:21.104Z,99666.46
2023-01-04T21:35:51.082Z,99654.55
2023-01-04T21:38:19.049Z,99638.40
2023-01-04T21:40:47.168Z,99634.33
2023-01-04T21:43:17.916Z,99631.21
2023-01-04T21:45:48.536Z,99620.05
2023-01-04T21:48:17.541Z,99607.45
2023-01-04T21:50:45.782Z,99606.59
2023-01-04T21:53:18.351Z,99610.70
2023-01-04T21:55:47.672Z,99613.90
2023-01-04T21:58:18.058Z,99614.55
2023-01-04T22:00:48.240Z,99612.39
2023-01-04T22:03:17.953Z,99607.60
2023-01-04T22:05:46.322Z,99610.29
2023-01-04T22:08:19.357Z,99608.98
2023-01-04T22:10:53.019Z,99609.38
2023-01-04T22:13:24.408Z,99601.70
2023-01-04T22:15:52.733Z,99593.55
2023-01-04T22:18:20.712Z,99585.21
2023-01-04T22:20:52.155Z,99583.09
2023-01-04T22:23:22.676Z,99574.05
2023-01-04T22:25:50.867Z,99570.66
2023-01-04T22:28:21.922Z,99572.47
2023-01-04T22:30:52.124Z,99565.08
2023-01-04T22:33:21.497Z,99555.16
2023-01-04T22:35:51.402Z,99553.83
2023-01-04T22:38:21.559Z,99551.00
2023-01-04T22:40:50.926Z,99547.49
2023-01-04T22:43:24.654Z,99542.21
2023-01-04T22:45:59.208Z,99540.08
2023-01-04T22:48:29.985Z,99528.92
2023-01-04T22:50:58.178Z,99523.44
2023-01-04T22:53:28.248Z,99519.22
2023-01-04T22:56:18.412Z,99504.64
2023-01-04T22:58:52.348Z,99504.03
2023-01-04T23:01:31.998Z,99500.11
2023-01-04T23:04:04.021Z,99496.86
2023-01-04T23:06:32.776Z,99485.00
2023-01-04T23:09:02.829Z,99475.74
2023-01-04T23:11:31.323Z,99473.04
2023-01-04T23:14:01.132Z,99470.80
2023-01-04T23:16:32.722Z,99463.55
2023-01-04T23:19:02.407Z,99456.58
2023-01-04T23:21:30.755Z,99449.89
2023-01-04T23:24:01.616Z,99450.10
2023-01-04T23:26:30.976Z,99444.35
2023-01-04T23:28:59.415Z,99443.19
2023-01-04T23:31:28.827Z,99438.85
2023-01-04T23:33:58.318Z,99437.97
2023-01-04T23:36:30.352Z,99437.27
2023-01-04T23:38:59.426Z,99428.84
2023-01-04T23:41:42.456Z,99426.93
2023-01-04T23:44:15.537Z,99422.41
2023-01-04T23:46:47.793Z,99418.14
2023-01-04T23:49:21.895Z,99413.20
2023-01-04T23:51:50.114Z,99408.57
2023-01-04T23:54:19.818Z,99404.73
2023-01-04T23:56:50.293Z,99406.61
2023-01-04T23:59:19.470Z,99400.60
